createdAt,value
2022-10-09T00:00:36.317Z,2.92857
2022-10-09T00:01:36.349Z,3.85714
2022-10-09T00:02:36.402Z,5
2022-10-09T00:03:36.420Z,5.21429
2022-10-09T00:04:36.447Z,3.85714
2022-10-09T00:05:36.524Z,3.21429
2022-10-09T00:06:36.518Z,4
2022-10-09T00:07:36.546Z,4
2022-10-09T00:08:36.582Z,5.14286
2022-10-09T00:09:36.612Z,3.35714
2022-10-09T00:10:36.650Z,3.5
2022-10-09T00:11:36.687Z,4.21429
2022-10-09T00:12:36.726Z,4.14286
2022-10-09T00:13:36.788Z,4.42857
2022-10-09T00:14:36.800Z,3.64286
2022-10-09T00:15:36.840Z,3.21429
2022-10-09T00:16:37.020Z,5.21429
2022-10-09T00:17:36.914Z,3.5
2022-10-09T00:18:36.943Z,4.92857
2022-10-09T00:19:36.976Z,3.85714
2022-10-09T00:20:37.014Z,3.42857
2022-10-09T00:21:37.076Z,3.21429
2022-10-09T00:22:37.088Z,3.92857
2022-10-09T00:23:37.123Z,3.5
2022-10-09T00:24:37.160Z,3.5
2022-10-09T00:25:37.197Z,4.5
2022-10-09T00:26:37.228Z,3.14286
2022-10-09T00:27:37.269Z,4
2022-10-09T00:28:38.798Z,4.14286
2022-10-09T00:29:37.324Z,3.42857
2022-10-09T00:30:37.468Z,3.64286
2022-10-09T00:31:37.393Z,3.42857
2022-10-09T00:32:37.429Z,3.42857
2022-10-09T00:33:37.465Z,4.35714
2022-10-09T00:34:37.506Z,3.71429
2022-10-09T00:35:37.534Z,4.14286
2022-10-09T00:36:37.562Z,3.42857
2022-10-09T00:37:37.590Z,3.64286
2022-10-09T00:38:37.615Z,3.92857
2022-10-09T00:39:37.660Z,3.71429
2022-10-09T00:40:37.703Z,4.5
2022-10-09T00:41:37.729Z,3.14286
2022-10-09T00:42:37.762Z,3.21429
2022-10-09T00:43:37.790Z,3.35714
2022-10-09T00:44:37.824Z,4
2022-10-09T00:45:37.849Z,4.14286
2022-10-09T00:46:37.881Z,5.21429
2022-10-09T00:47:37.917Z,3.14286
2022-10-09T00:48:37.953Z,3.5
2022-10-09T00:49:37.980Z,3.21429
2022-10-09T00:50:38.015Z,4.42857
2022-10-09T00:51:38.051Z,3.71429
2022-10-09T00:52:38.097Z,4.35714
2022-10-09T00:53:38.132Z,4.64286
2022-10-09T00:54:38.168Z,3.35714
2022-10-09T00:55:38.199Z,4
2022-10-09T00:56:38.237Z,2.92857
2022-10-09T00:57:38.270Z,3.92857
2022-10-09T00:58:38.294Z,3.21429
2022-10-09T00:59:38.326Z,2.71429
2022-10-09T01:00:38.366Z,3.71429
2022-10-09T01:01:38.503Z,3.21429
2022-10-09T01:02:38.483Z,3.85714
2022-10-09T01:03:38.472Z,3.35714
2022-10-09T01:04:38.500Z,3.14286
2022-10-09T01:05:38.534Z,3.35714
2022-10-09T01:06:38.564Z,2.92857
2022-10-09T01:07:38.603Z,3.21429
2022-10-09T01:08:38.636Z,3.85714
2022-10-09T01:09:38.666Z,3.71429
2022-10-09T01:10:38.708Z,5
2022-10-09T01:11:38.741Z,3.64286
2022-10-09T01:12:38.772Z,3.42857
2022-10-09T01:13:38.803Z,2.92857
2022-10-09T01:14:38.844Z,3.71429
2022-10-09T01:15:38.928Z,3.85714
2022-10-09T01:16:38.920Z,3.14286
2022-10-09T01:17:38.971Z,3.64286
2022-10-09T01:18:38.981Z,3.21429
2022-10-09T01:19:39.025Z,4
2022-10-09T01:20:39.064Z,3
2022-10-09T01:21:39.101Z,3.14286
2022-10-09T01:22:39.140Z,3.35714
2022-10-09T01:23:39.174Z,3.21429
2022-10-09T01:24:39.209Z,3.85714
2022-10-09T01:25:39.243Z,2.64286
2022-10-09T01:26:39.278Z,4.42857
2022-10-09T01:27:39.315Z,2.92857
2022-10-09T01:28:39.419Z,2.64286
2022-10-09T01:29:39.388Z,3.14286
2022-10-09T01:30:39.459Z,3.14286
2022-10-09T01:31:39.455Z,2.85714
2022-10-09T01:32:39.496Z,3.21429
2022-10-09T01:33:39.521Z,3.64286
2022-10-09T01:34:39.537Z,3.5
2022-10-09T01:35:39.569Z,3.5
2022-10-09T01:36:39.606Z,3.35714
2022-10-09T01:37:39.636Z,2.71429
2022-10-09T01:38:39.668Z,3.35714
2022-10-09T01:39:39.708Z,2.5
2022-10-09T01:40:39.735Z,3.21429
2022-10-09T01:41:39.770Z,3.5
2022-10-09T01:42:39.806Z,2.5
2022-10-09T01:43:39.843Z,4.14286
2022-10-09T01:44:39.883Z,3.21429
2022-10-09T01:45:39.922Z,3.35714
2022-10-09T01:46:40.006Z,3.14286
2022-10-09T01:47:39.997Z,3.85714
2022-10-09T01:48:40.027Z,2.92857
2022-10-09T01:49:40.058Z,3
2022-10-09T01:50:40.089Z,2.64286
2022-10-09T01:51:40.133Z,2.85714
2022-10-09T01:52:41.400Z,5.21429
2022-10-09T01:53:40.208Z,2.85714
2022-10-09T01:54:40.238Z,3
2022-10-09T01:55:40.273Z,2.64286
2022-10-09T01:56:40.299Z,2.92857
2022-10-09T01:57:40.329Z,2.85714
2022-10-09T01:58:40.361Z,3.14286
2022-10-09T01:59:40.401Z,2.71429
2022-10-09T02:00:40.429Z,4.21429
2022-10-09T02:01:40.518Z,3
2022-10-09T02:02:40.558Z,2.5
2022-10-09T02:03:40.547Z,2.92857
2022-10-09T02:04:40.574Z,2.85714
2022-10-09T02:05:40.625Z,3
2022-10-09T02:06:40.658Z,2.92857
2022-10-09T02:07:40.692Z,2.5
2022-10-09T02:08:40.732Z,2.64286
2022-10-09T02:09:40.776Z,2.85714
2022-10-09T02:10:40.810Z,2.35714
2022-10-09T02:11:40.840Z,2.71429
2022-10-09T02:12:40.876Z,2.42857
2022-10-09T02:13:40.905Z,2.5
2022-10-09T02:14:40.943Z,2.21429
2022-10-09T02:15:41.027Z,2.5
2022-10-09T02:16:41.009Z,2.42857
2022-10-09T02:17:41.052Z,2.5
2022-10-09T02:18:41.086Z,3.21429
2022-10-09T02:19:41.109Z,2.42857
2022-10-09T02:20:41.148Z,2.64286
2022-10-09T02:21:44.038Z,4
2022-10-09T02:22:41.219Z,2.64286
2022-10-09T02:23:41.248Z,2.42857
2022-10-09T02:24:41.282Z,3
2022-10-09T02:25:41.329Z,2.64286
2022-10-09T02:26:41.356Z,2.85714
2022-10-09T02:27:41.390Z,3.5
2022-10-09T02:28:45.721Z,2.5
2022-10-09T02:29:41.450Z,2.21429
2022-10-09T02:30:41.480Z,2.64286
2022-10-09T02:31:41.584Z,4.14286
2022-10-09T02:32:41.544Z,3.14286
2022-10-09T02:33:41.587Z,2.92857
2022-10-09T02:34:41.620Z,2.85714
2022-10-09T02:35:41.656Z,2.85714
2022-10-09T02:36:41.690Z,3.14286
2022-10-09T02:37:41.720Z,2.42857
2022-10-09T02:38:41.755Z,2.5
2022-10-09T02:39:41.793Z,3
2022-10-09T02:40:41.823Z,2.85714
2022-10-09T02:41:41.862Z,3
2022-10-09T02:42:41.894Z,2.64286
2022-10-09T02:43:41.925Z,2.64286
2022-10-09T02:44:41.958Z,2.42857
2022-10-09T02:45:41.995Z,2.35714
2022-10-09T02:46:42.081Z,2.64286
2022-10-09T02:47:42.073Z,2
2022-10-09T02:48:42.109Z,2.42857
2022-10-09T02:49:42.144Z,3
2022-10-09T02:50:42.183Z,2.42857
2022-10-09T02:51:42.223Z,2.85714
2022-10-09T02:52:42.252Z,2.85714
2022-10-09T02:53:42.292Z,3.14286
2022-10-09T02:54:42.317Z,2.64286
2022-10-09T02:55:42.351Z,2.71429
2022-10-09T02:56:42.391Z,2.64286
2022-10-09T02:57:42.424Z,2.85714
2022-10-09T02:58:42.452Z,2.64286
2022-10-09T02:59:42.490Z,2.5
2022-10-09T03:00:42.530Z,3.42857
2022-10-09T03:01:42.727Z,2
2022-10-09T03:02:42.682Z,2
2022-10-09T03:03:42.635Z,2.5
2022-10-09T03:04:42.671Z,2.92857
2022-10-09T03:05:42.702Z,2.21429
2022-10-09T03:06:42.745Z,2.14286
2022-10-09T03:07:42.775Z,2.71429
2022-10-09T03:08:42.807Z,2.42857
2022-10-09T03:09:42.851Z,2.92857
2022-10-09T03:10:42.880Z,2.71429
2022-10-09T03:11:42.912Z,2.71429
2022-10-09T03:12:42.947Z,2.42857
2022-10-09T03:13:42.983Z,2.42857
2022-10-09T03:14:43.015Z,2.42857
2022-10-09T03:15:43.095Z,2.64286
2022-10-09T03:16:43.087Z,3.35714
2022-10-09T03:17:43.118Z,2.64286
2022-10-09T03:18:43.147Z,4.35714
2022-10-09T03:19:43.177Z,2.64286
2022-10-09T03:20:43.205Z,2.42857
2022-10-09T03:21:43.227Z,2.92857
2022-10-09T03:22:43.265Z,2.71429
2022-10-09T03:23:43.299Z,3.35714
2022-10-09T03:24:43.334Z,3
2022-10-09T03:25:43.370Z,2.85714
2022-10-09T03:26:43.402Z,3
2022-10-09T03:27:43.438Z,2.71429
2022-10-09T03:28:43.557Z,3.64286
2022-10-09T03:29:43.506Z,3.35714
2022-10-09T03:30:43.544Z,3.14286
2022-10-09T03:31:52.900Z,2.85714
2022-10-09T03:32:43.616Z,3.92857
2022-10-09T03:33:43.652Z,2.85714
2022-10-09T03:34:43.682Z,3.42857
2022-10-09T03:35:43.716Z,3.35714
2022-10-09T03:36:43.745Z,2.71429
2022-10-09T03:37:43.787Z,3.85714
2022-10-09T03:38:43.818Z,2.92857
2022-10-09T03:39:43.851Z,2.64286
2022-10-09T03:40:43.890Z,2.85714
2022-10-09T03:41:43.918Z,2.71429
2022-10-09T03:42:43.956Z,2.21429
2022-10-09T03:43:44.012Z,2.21429
2022-10-09T03:44:44.036Z,2.14286
2022-10-09T03:45:44.066Z,2.35714
2022-10-09T03:46:44.123Z,2.5
2022-10-09T03:47:44.141Z,2.42857
2022-10-09T03:48:44.181Z,3.5
2022-10-09T03:49:44.219Z,2.21429
2022-10-09T03:50:44.249Z,2.71429
2022-10-09T03:51:44.286Z,2.85714
2022-10-09T03:52:44.323Z,2.92857
2022-10-09T03:53:44.349Z,2.14286
2022-10-09T03:54:44.382Z,2.21429
2022-10-09T03:55:44.427Z,2.21429
2022-10-09T03:56:44.456Z,2.35714
2022-10-09T03:57:44.490Z,2.21429
2022-10-09T03:58:44.523Z,3.14286
2022-10-09T03:59:44.559Z,2.5
2022-10-09T04:00:44.673Z,3.21429
2022-10-09T04:01:44.633Z,2.14286
2022-10-09T04:02:44.732Z,2.21429
2022-10-09T04:03:44.697Z,2.35714
2022-10-09T04:04:44.735Z,2.35714
2022-10-09T04:05:44.780Z,2.35714
2022-10-09T04:06:44.820Z,2
2022-10-09T04:07:44.860Z,2.42857
2022-10-09T04:08:44.898Z,2.35714
2022-10-09T04:09:44.938Z,2.35714
2022-10-09T04:10:44.961Z,2.85714
2022-10-09T04:11:45.010Z,2.21429
2022-10-09T04:12:45.039Z,2.35714
2022-10-09T04:13:45.072Z,2.64286
2022-10-09T04:14:45.103Z,1.85714
2022-10-09T04:15:45.133Z,2.35714
2022-10-09T04:16:45.192Z,3.85714
2022-10-09T04:17:45.205Z,2.14286
2022-10-09T04:18:45.238Z,2.64286
2022-10-09T04:19:45.273Z,2.42857
2022-10-09T04:20:45.309Z,2.71429
2022-10-09T04:21:45.349Z,3
2022-10-09T04:22:45.548Z,2.35714
2022-10-09T04:23:45.400Z,2.42857
2022-10-09T04:24:45.433Z,2.42857
2022-10-09T04:25:45.467Z,3
2022-10-09T04:26:45.508Z,3
2022-10-09T04:27:45.537Z,2.42857
2022-10-09T04:28:45.597Z,2.35714
2022-10-09T04:29:45.609Z,4.14286
2022-10-09T04:30:45.648Z,2.35714
2022-10-09T04:31:45.761Z,2.21429
2022-10-09T04:32:45.847Z,2.42857
2022-10-09T04:33:45.740Z,2.21429
2022-10-09T04:34:45.770Z,2.35714
2022-10-09T04:35:45.816Z,2.85714
2022-10-09T04:36:45.846Z,2.21429
2022-10-09T04:37:45.877Z,1.92857
2022-10-09T04:38:45.919Z,2.64286
2022-10-09T04:39:45.947Z,1.71429
2022-10-09T04:40:45.983Z,2.42857
2022-10-09T04:41:46.016Z,2.21429
2022-10-09T04:42:46.240Z,2.71429
2022-10-09T04:43:46.081Z,2.35714
2022-10-09T04:44:46.113Z,1.71429
2022-10-09T04:45:46.180Z,2
2022-10-09T04:46:46.181Z,1.92857
2022-10-09T04:47:46.212Z,1.64286
2022-10-09T04:48:46.249Z,2.14286
2022-10-09T04:49:46.279Z,2
2022-10-09T04:50:46.305Z,2.42857
2022-10-09T04:51:46.337Z,2.14286
2022-10-09T04:52:46.709Z,1.92857
2022-10-09T04:53:46.402Z,2.64286
2022-10-09T04:54:46.441Z,1.92857
2022-10-09T04:55:46.479Z,2.35714
2022-10-09T04:56:46.518Z,2
2022-10-09T04:57:46.559Z,1.85714
2022-10-09T04:58:46.580Z,2.14286
2022-10-09T04:59:46.609Z,2
2022-10-09T05:00:46.741Z,1.85714
2022-10-09T05:01:46.830Z,2.14286
2022-10-09T05:02:47.072Z,1.85714
2022-10-09T05:03:46.763Z,2.14286
2022-10-09T05:04:46.802Z,2.64286
2022-10-09T05:05:46.836Z,2
2022-10-09T05:06:46.867Z,2.35714
2022-10-09T05:07:46.906Z,2.64286
2022-10-09T05:08:46.933Z,2.35714
2022-10-09T05:09:46.972Z,2.35714
2022-10-09T05:10:47.010Z,2
2022-10-09T05:11:47.036Z,3.21429
2022-10-09T05:12:47.444Z,2.14286
2022-10-09T05:13:47.092Z,2.64286
2022-10-09T05:14:47.127Z,2.14286
2022-10-09T05:15:47.166Z,2.42857
2022-10-09T05:17:08.788Z,3.14286
2022-10-09T05:17:47.231Z,2.5
2022-10-09T05:18:47.270Z,1.85714
2022-10-09T05:19:47.296Z,1.92857
2022-10-09T05:20:47.353Z,2.85714
2022-10-09T05:21:47.353Z,1.64286
2022-10-09T05:22:47.841Z,1.85714
2022-10-09T05:23:47.424Z,1.85714
2022-10-09T05:24:47.449Z,2.14286
2022-10-09T05:25:47.491Z,1.71429
2022-10-09T05:26:47.521Z,2.14286
2022-10-09T05:27:47.552Z,1.85714
2022-10-09T05:28:47.624Z,1.85714
2022-10-09T05:29:47.611Z,2.42857
2022-10-09T05:30:47.651Z,2.14286
2022-10-09T05:31:49.598Z,1.92857
2022-10-09T05:32:47.972Z,2
2022-10-09T05:33:47.745Z,2.21429
2022-10-09T05:34:47.780Z,2.14286
2022-10-09T05:35:47.817Z,1.92857
2022-10-09T05:36:47.857Z,2.64286
2022-10-09T05:37:47.905Z,2.85714
2022-10-09T05:38:47.915Z,3
2022-10-09T05:39:47.954Z,2.21429
2022-10-09T05:40:47.989Z,2.21429
2022-10-09T05:41:48.036Z,2.35714
2022-10-09T05:42:48.292Z,2.85714
2022-10-09T05:43:48.088Z,2.21429
2022-10-09T05:44:48.118Z,4
2022-10-09T05:45:48.225Z,2.5
2022-10-09T05:46:48.201Z,3.92857
2022-10-09T05:47:48.226Z,2.5
2022-10-09T05:48:48.267Z,3.92857
2022-10-09T05:49:48.298Z,2
2022-10-09T05:50:48.335Z,2.21429
2022-10-09T05:51:48.364Z,3.85714
2022-10-09T05:52:48.662Z,2.35714
2022-10-09T05:53:48.431Z,2.71429
2022-10-09T05:54:48.466Z,2.42857
2022-10-09T05:55:48.509Z,2.5
2022-10-09T05:56:48.534Z,4.5
2022-10-09T05:57:48.566Z,3.71429
2022-10-09T05:58:48.598Z,4.21429
2022-10-09T05:59:48.631Z,3.5
2022-10-09T06:00:48.665Z,3.42857
2022-10-09T06:01:48.851Z,3.71429
2022-10-09T06:02:48.927Z,6
2022-10-09T06:03:48.775Z,4.42857
2022-10-09T06:04:48.827Z,3.35714
2022-10-09T06:05:48.846Z,2.71429
2022-10-09T06:06:48.880Z,4.85714
2022-10-09T06:07:48.914Z,3.5
2022-10-09T06:08:48.947Z,4.85714
2022-10-09T06:09:48.975Z,4.21429
2022-10-09T06:10:49.010Z,2.92857
2022-10-09T06:11:49.052Z,3.5
2022-10-09T06:12:49.388Z,3.85714
2022-10-09T06:13:49.120Z,3.35714
2022-10-09T06:14:49.147Z,4.64286
2022-10-09T06:15:49.181Z,3.35714
2022-10-09T06:16:49.287Z,3.42857
2022-10-09T06:17:49.252Z,4.85714
2022-10-09T06:18:49.775Z,4.14286
2022-10-09T06:19:49.320Z,3.14286
2022-10-09T06:20:49.351Z,3.85714
2022-10-09T06:21:49.455Z,3.42857
2022-10-09T06:22:49.695Z,3.5
2022-10-09T06:23:49.454Z,3.71429
2022-10-09T06:24:49.486Z,3.35714
2022-10-09T06:25:49.517Z,5.64286
2022-10-09T06:26:49.553Z,4.42857
2022-10-09T06:27:49.576Z,3.21429
2022-10-09T06:28:49.695Z,5.92857
2022-10-09T06:29:49.649Z,4.14286
2022-10-09T06:30:49.765Z,3.92857
2022-10-09T06:31:49.723Z,3.5
2022-10-09T06:32:50.101Z,3.5
2022-10-09T06:33:49.786Z,5.21429
2022-10-09T06:34:49.813Z,4
2022-10-09T06:35:49.867Z,4.35714
2022-10-09T06:36:49.900Z,4.92857
2022-10-09T06:37:49.899Z,4.71429
2022-10-09T06:38:49.934Z,4.85714
2022-10-09T06:39:49.970Z,4.14286
2022-10-09T06:40:50.013Z,5.21429
2022-10-09T06:41:50.073Z,4.92857
2022-10-09T06:42:50.636Z,4.71429
2022-10-09T06:43:50.101Z,4.35714
2022-10-09T06:44:50.132Z,5
2022-10-09T06:45:50.218Z,4.35714
2022-10-09T06:46:50.194Z,5.21429
2022-10-09T06:47:50.229Z,3.85714
2022-10-09T06:48:50.264Z,4.71429
2022-10-09T06:49:50.294Z,4.85714
2022-10-09T06:50:50.341Z,4.14286
2022-10-09T06:51:50.382Z,3.85714
2022-10-09T06:52:50.851Z,4.35714
2022-10-09T06:53:50.446Z,4
2022-10-09T06:54:50.478Z,5.21429
2022-10-09T06:55:50.516Z,5.42857
2022-10-09T06:56:50.541Z,4.35714
2022-10-09T06:57:50.599Z,4.64286
2022-10-09T06:58:50.605Z,4.14286
2022-10-09T06:59:50.637Z,5.21429
2022-10-09T07:00:50.679Z,5.64286
2022-10-09T07:01:50.792Z,4.92857
2022-10-09T07:02:51.230Z,4.71429
2022-10-09T07:03:50.768Z,6.14286
2022-10-09T07:04:50.795Z,4.14286
2022-10-09T07:05:50.832Z,6.5
2022-10-09T07:06:50.882Z,3.92857
2022-10-09T07:07:50.919Z,5
2022-10-09T07:08:50.930Z,5.85714
2022-10-09T07:09:50.962Z,5.5
2022-10-09T07:10:50.991Z,6
2022-10-09T07:11:51.027Z,4.85714
2022-10-09T07:12:51.523Z,5.35714
2022-10-09T07:13:51.092Z,4.5
2022-10-09T07:14:51.125Z,5.71429
2022-10-09T07:15:51.243Z,4.35714
2022-10-09T07:16:51.195Z,4.35714
2022-10-09T07:17:51.230Z,4.5
2022-10-09T07:18:51.261Z,5.14286
2022-10-09T07:19:51.291Z,4.42857
2022-10-09T07:20:51.327Z,3.85714
2022-10-09T07:21:51.367Z,4.21429
2022-10-09T07:22:51.623Z,4.14286
2022-10-09T07:23:51.430Z,4.21429
2022-10-09T07:24:51.463Z,4.14286
2022-10-09T07:25:51.486Z,5.35714
2022-10-09T07:26:51.520Z,4
2022-10-09T07:27:51.547Z,5.42857
2022-10-09T07:28:51.635Z,5.85714
2022-10-09T07:29:51.614Z,4.21429
2022-10-09T07:30:51.725Z,4.64286
2022-10-09T07:31:51.682Z,4.35714
2022-10-09T07:32:52.104Z,4.42857
2022-10-09T07:33:51.747Z,3.64286
2022-10-09T07:34:51.782Z,5.92857
2022-10-09T07:35:51.820Z,5.5
2022-10-09T07:36:51.846Z,5.64286
2022-10-09T07:37:51.882Z,4.71429
2022-10-09T07:38:51.916Z,4.5
2022-10-09T07:39:51.946Z,6.14286
2022-10-09T07:40:51.983Z,5.64286
2022-10-09T07:41:52.015Z,5.42857
2022-10-09T07:42:52.130Z,4.5
2022-10-09T07:43:52.088Z,4.85714
2022-10-09T07:44:52.116Z,6.21429
2022-10-09T07:45:52.195Z,5.35714
2022-10-09T07:46:52.185Z,5.92857
2022-10-09T07:47:52.211Z,4.92857
2022-10-09T07:48:52.251Z,4.64286
2022-10-09T07:49:52.286Z,7
2022-10-09T07:50:52.323Z,6.21429
2022-10-09T07:51:52.360Z,5.42857
2022-10-09T07:52:52.608Z,6.21429
2022-10-09T07:53:52.424Z,4.71429
2022-10-09T07:54:52.463Z,4.14286
2022-10-09T07:55:52.488Z,4.85714
2022-10-09T07:56:52.529Z,5.92857
2022-10-09T07:57:52.561Z,5.21429
2022-10-09T07:58:52.590Z,4.64286
2022-10-09T07:59:52.617Z,4.92857
2022-10-09T08:00:52.652Z,4.42857
2022-10-09T08:01:52.801Z,4.21429
2022-10-09T08:02:53.320Z,4.21429
2022-10-09T08:03:52.743Z,5.64286
2022-10-09T08:04:52.779Z,4.21429
2022-10-09T08:05:52.811Z,5
2022-10-09T08:06:52.844Z,4.35714
2022-10-09T08:07:52.872Z,5.92857
2022-10-09T08:08:52.906Z,4.71429
2022-10-09T08:09:52.950Z,5.35714
2022-10-09T08:10:52.985Z,4.64286
2022-10-09T08:11:53.014Z,4.42857
2022-10-09T08:12:53.054Z,5.21429
2022-10-09T08:13:53.099Z,5
2022-10-09T08:14:53.124Z,4.14286
2022-10-09T08:15:53.269Z,4.92857
2022-10-09T08:16:53.191Z,6.5
2022-10-09T08:17:53.227Z,4.35714
2022-10-09T08:18:53.255Z,5.35714
2022-10-09T08:19:53.291Z,6.42857
2022-10-09T08:20:53.328Z,5.5
2022-10-09T08:21:53.363Z,4.42857
2022-10-09T08:22:53.397Z,6.21429
2022-10-09T08:23:53.427Z,4.42857
2022-10-09T08:24:53.463Z,6.5
2022-10-09T08:25:53.498Z,4.71429
2022-10-09T08:26:53.532Z,4.71429
2022-10-09T08:27:53.562Z,4.42857
2022-10-09T08:28:53.744Z,5.64286
2022-10-09T08:29:53.639Z,5.5
2022-10-09T08:30:53.705Z,4.5
2022-10-09T08:31:53.699Z,5.35714
2022-10-09T08:32:53.733Z,5.64286
2022-10-09T08:33:53.761Z,4.42857
2022-10-09T08:34:53.795Z,5.35714
2022-10-09T08:35:53.822Z,4.92857
2022-10-09T08:36:53.859Z,6.42857
2022-10-09T08:37:53.884Z,4.64286
2022-10-09T08:38:53.914Z,6.35714
2022-10-09T08:39:53.954Z,5.21429
2022-10-09T08:40:58.151Z,4.14286
2022-10-09T08:41:54.015Z,5.5
2022-10-09T08:42:54.046Z,4.21429
2022-10-09T08:43:54.103Z,5.5
2022-10-09T08:44:54.118Z,5.42857
2022-10-09T08:45:54.147Z,6.71429
2022-10-09T08:46:54.247Z,6
2022-10-09T08:47:54.219Z,5.85714
2022-10-09T08:48:54.252Z,5.5
2022-10-09T08:49:54.288Z,4.85714
2022-10-09T08:50:54.323Z,5.85714
2022-10-09T08:51:54.357Z,4.92857
2022-10-09T08:52:54.669Z,6.35714
2022-10-09T08:53:54.435Z,4.42857
2022-10-09T08:54:54.454Z,6.85714
2022-10-09T08:55:54.481Z,5.14286
2022-10-09T08:56:54.521Z,4.5
2022-10-09T08:57:54.560Z,4.35714
2022-10-09T08:58:54.592Z,7.14286
2022-10-09T08:59:54.629Z,3.71429
2022-10-09T09:00:54.658Z,4.5
2022-10-09T09:01:54.750Z,4.42857
2022-10-09T09:02:54.737Z,4.42857
2022-10-09T09:03:54.748Z,6.42857
2022-10-09T09:04:55.012Z,4.35714
2022-10-09T09:05:54.818Z,4.71429
2022-10-09T09:06:54.840Z,6.21429
2022-10-09T09:07:54.878Z,4.92857
2022-10-09T09:08:54.917Z,6.35714
2022-10-09T09:09:54.949Z,4.35714
2022-10-09T09:10:54.979Z,8.14286
2022-10-09T09:11:55.008Z,4.35714
2022-10-09T09:12:55.044Z,5.42857
2022-10-09T09:13:55.074Z,4.92857
2022-10-09T09:14:55.110Z,5.85714
2022-10-09T09:15:55.319Z,6.21429
2022-10-09T09:16:55.182Z,4.35714
2022-10-09T09:17:55.214Z,5.71429
2022-10-09T09:18:55.242Z,7.64286
2022-10-09T09:19:55.270Z,5
2022-10-09T09:20:55.300Z,6.5
2022-10-09T09:21:55.340Z,5.14286
2022-10-09T09:22:55.369Z,5.5
2022-10-09T09:23:55.386Z,5.71429
2022-10-09T09:24:55.487Z,6
2022-10-09T09:25:55.456Z,4.64286
2022-10-09T09:26:55.489Z,3.85714
2022-10-09T09:27:55.528Z,5.92857
2022-10-09T09:28:55.647Z,5.21429
2022-10-09T09:29:55.597Z,4
2022-10-09T09:30:55.691Z,6.64286
2022-10-09T09:31:55.659Z,4.92857
2022-10-09T09:32:55.692Z,6.21429
2022-10-09T09:33:55.726Z,4.14286
2022-10-09T09:34:55.775Z,5
2022-10-09T09:35:55.788Z,6.64286
2022-10-09T09:36:55.832Z,6.42857
2022-10-09T09:37:55.862Z,4.5
2022-10-09T09:39:54.260Z,3.71429
2022-10-09T09:40:55.953Z,6.71429
2022-10-09T09:41:55.981Z,4.21429
2022-10-09T09:42:56.009Z,5
2022-10-09T09:43:56.042Z,5.85714
2022-10-09T09:44:56.081Z,6.92857
2022-10-09T09:45:56.114Z,4
2022-10-09T09:46:56.249Z,6.14286
2022-10-09T09:47:56.188Z,3.92857
2022-10-09T09:48:56.221Z,4.64286
2022-10-09T09:49:56.257Z,5.71429
2022-10-09T09:51:10.144Z,6.71429
2022-10-09T09:51:56.325Z,6.85714
2022-10-09T09:52:56.356Z,4.92857
2022-10-09T09:53:56.391Z,4.92857
2022-10-09T09:54:56.425Z,5.21429
2022-10-09T09:55:56.469Z,6.92857
2022-10-09T09:57:15.817Z,3.71429
2022-10-09T09:57:56.530Z,6.64286
2022-10-09T09:58:56.568Z,6
2022-10-09T09:59:56.598Z,5.92857
2022-10-09T10:00:56.666Z,7
2022-10-09T10:01:56.718Z,5.71429
2022-10-09T10:02:56.702Z,5.5
2022-10-09T10:03:56.731Z,4.5
2022-10-09T10:04:56.771Z,5.42857
2022-10-09T10:05:56.799Z,4.14286
2022-10-09T10:06:56.827Z,4.14286
2022-10-09T10:07:56.863Z,4.64286
2022-10-09T10:08:56.899Z,6
2022-10-09T10:09:56.932Z,5.85714
2022-10-09T10:10:56.961Z,5.35714
2022-10-09T10:11:56.987Z,6.92857
2022-10-09T10:12:57.021Z,6.14286
2022-10-09T10:13:57.045Z,5.5
2022-10-09T10:14:57.073Z,5.85714
2022-10-09T10:15:57.155Z,5.14286
2022-10-09T10:16:57.138Z,6.21429
2022-10-09T10:17:58.637Z,5.21429
2022-10-09T10:18:58.681Z,5.42857
2022-10-09T10:19:58.709Z,7.14286
2022-10-09T10:20:58.766Z,5.64286
2022-10-09T10:21:58.769Z,5.5
2022-10-09T10:22:58.791Z,3.71429
2022-10-09T10:23:58.867Z,4.21429
2022-10-09T10:24:58.863Z,6.21429
2022-10-09T10:25:58.904Z,5
2022-10-09T10:26:58.914Z,4.21429
2022-10-09T10:27:58.951Z,6.42857
2022-10-09T10:28:58.982Z,4.71429
2022-10-09T10:29:59.012Z,6.92857
2022-10-09T10:30:59.082Z,4.85714
2022-10-09T10:31:59.073Z,7
2022-10-09T10:32:59.112Z,3.64286
2022-10-09T10:33:59.132Z,5.71429
2022-10-09T10:34:59.181Z,6
2022-10-09T10:35:59.208Z,6.14286
2022-10-09T10:37:02.583Z,5.85714
2022-10-09T10:37:59.265Z,5
2022-10-09T10:38:59.297Z,4.85714
2022-10-09T10:39:59.333Z,5.42857
2022-10-09T10:40:59.365Z,6.71429
2022-10-09T10:41:59.401Z,5
2022-10-09T10:42:59.500Z,3.85714
2022-10-09T10:43:59.469Z,4.64286
2022-10-09T10:44:59.500Z,5.35714
2022-10-09T10:45:59.535Z,4.5
2022-10-09T10:46:59.633Z,5.21429
2022-10-09T10:47:59.615Z,3.85714
2022-10-09T10:48:59.636Z,4.14286
2022-10-09T10:49:59.671Z,4.85714
2022-10-09T10:50:59.705Z,5
2022-10-09T10:51:59.745Z,3.5
2022-10-09T10:52:59.783Z,5.71429
2022-10-09T10:53:59.824Z,4.64286
2022-10-09T10:54:59.840Z,4.42857
2022-10-09T10:56:04.863Z,4.14286
2022-10-09T10:56:59.907Z,5.5
2022-10-09T10:57:59.953Z,4.85714
2022-10-09T10:58:59.958Z,3.64286
2022-10-09T10:59:59.988Z,3.92857
2022-10-09T11:01:00.128Z,2.92857
2022-10-09T11:02:00.067Z,3.35714
2022-10-09T11:03:00.167Z,4.35714
2022-10-09T11:04:00.140Z,4.85714
2022-10-09T11:05:00.162Z,5.64286
2022-10-09T11:06:00.189Z,5.92857
2022-10-09T11:07:00.226Z,3
2022-10-09T11:08:00.461Z,6
2022-10-09T11:09:00.285Z,4.71429
2022-10-09T11:10:00.328Z,4
2022-10-09T11:11:00.373Z,4
2022-10-09T11:12:00.398Z,4.85714
2022-10-09T11:13:00.825Z,5.64286
2022-10-09T11:14:00.466Z,4.92857
2022-10-09T11:15:00.493Z,3.21429
2022-10-09T11:16:00.581Z,4.85714
2022-10-09T11:17:00.562Z,4
2022-10-09T11:18:00.619Z,5.85714
2022-10-09T11:19:00.619Z,3.14286
2022-10-09T11:20:00.651Z,3.35714
2022-10-09T11:21:00.690Z,3.92857
2022-10-09T11:22:00.721Z,4.5
2022-10-09T11:23:00.776Z,3.42857
2022-10-09T11:24:00.785Z,5.5
2022-10-09T11:25:00.824Z,3.64286
2022-10-09T11:26:00.852Z,5.64286
2022-10-09T11:27:03.223Z,4.71429
2022-10-09T11:28:00.921Z,4.64286
2022-10-09T11:29:00.950Z,4.71429
2022-10-09T11:30:00.985Z,4
2022-10-09T11:31:01.022Z,2.92857
2022-10-09T11:32:01.094Z,4.85714
2022-10-09T11:33:01.086Z,5.92857
2022-10-09T11:34:01.114Z,4.64286
2022-10-09T11:35:01.149Z,3.21429
2022-10-09T11:36:01.183Z,4.85714
2022-10-09T11:37:01.218Z,3.42857
2022-10-09T11:38:01.251Z,4.5
2022-10-09T11:39:01.317Z,3.42857
2022-10-09T11:40:01.329Z,3.35714
2022-10-09T11:41:03.854Z,2.92857
2022-10-09T11:42:01.392Z,5.42857
2022-10-09T11:43:01.426Z,3.92857
2022-10-09T11:44:01.479Z,3.42857
2022-10-09T11:45:01.514Z,4.42857
2022-10-09T11:46:01.569Z,6.5
2022-10-09T11:47:02.239Z,4.35714
2022-10-09T11:48:01.574Z,3.64286
2022-10-09T11:49:01.631Z,3.21429
2022-10-09T11:50:01.666Z,2.92857
2022-10-09T11:51:01.672Z,4.92857
2022-10-09T11:52:01.710Z,4.35714
2022-10-09T11:53:01.746Z,4.5
2022-10-09T11:54:01.801Z,4.21429
2022-10-09T11:55:01.805Z,3.64286
2022-10-09T11:56:01.837Z,3.21429
2022-10-09T11:57:05.147Z,3.71429
2022-10-09T11:58:01.900Z,3.21429
2022-10-09T11:59:01.961Z,4
2022-10-09T12:00:01.968Z,4
2022-10-09T12:01:02.109Z,4.42857
2022-10-09T12:02:02.128Z,4.21429
2022-10-09T12:03:02.074Z,4.5
2022-10-09T12:04:02.132Z,5.14286
2022-10-09T12:05:02.142Z,4.5
2022-10-09T12:06:02.176Z,4.35714
2022-10-09T12:07:02.214Z,3.85714
2022-10-09T12:08:02.250Z,4.35714
2022-10-09T12:09:02.303Z,5
2022-10-09T12:10:02.312Z,4.21429
2022-10-09T12:11:02.352Z,4.42857
2022-10-09T12:12:02.388Z,3.42857
2022-10-09T12:13:02.412Z,3
2022-10-09T12:14:02.445Z,3.21429
2022-10-09T12:15:02.474Z,3.71429
2022-10-09T12:16:02.506Z,4
2022-10-09T12:17:02.649Z,3.35714
2022-10-09T12:18:02.562Z,3.14286
2022-10-09T12:19:02.593Z,4.21429
2022-10-09T12:20:02.646Z,4.85714
2022-10-09T12:21:02.659Z,4.42857
2022-10-09T12:22:02.712Z,5.42857
2022-10-09T12:23:25.609Z,5.35714
2022-10-09T12:24:02.760Z,6.64286
2022-10-09T12:25:02.818Z,3.5
2022-10-09T12:26:02.839Z,4
2022-10-09T12:27:02.861Z,3.64286
2022-10-09T12:28:02.963Z,3.92857
2022-10-09T12:29:02.917Z,3.92857
2022-10-09T12:30:02.972Z,4.42857